createdAt,value
2018-05-23T00:00:15.573Z,0.00
2018-05-23T00:01:15.566Z,0.00
2018-05-23T00:02:15.565Z,0.00
2018-05-23T00:03:15.569Z,0.00
2018-05-23T00:04:15.569Z,0.00
2018-05-23T00:05:15.567Z,0.00
2018-05-23T00:06:15.566Z,0.00
2018-05-23T00:07:15.560Z,0.00
2018-05-23T00:08:15.559Z,0.00
2018-05-23T00:09:15.559Z,0.00
2018-05-23T00:10:15.558Z,0.00
2018-05-23T00:11:15.561Z,0.00
2018-05-23T00:12:15.561Z,0.00
2018-05-23T00:13:15.561Z,0.00
2018-05-23T00:14:15.561Z,0.00
2018-05-23T00:15:15.555Z,0.00
2018-05-23T00:16:15.554Z,0.00
2018-05-23T00:17:15.558Z,0.00
2018-05-23T00:18:15.557Z,0.00
2018-05-23T00:19:15.551Z,0.00
2018-05-23T00:20:15.552Z,0.00
2018-05-23T00:21:15.551Z,0.00
2018-05-23T00:22:15.554Z,0.00
2018-05-23T00:23:15.552Z,0.00
2018-05-23T00:24:15.551Z,0.00
2018-05-23T00:25:15.551Z,0.00
2018-05-23T00:26:15.551Z,0.00
2018-05-23T00:27:15.544Z,0.00
2018-05-23T00:28:15.544Z,0.00
2018-05-23T00:29:15.544Z,0.00
2018-05-23T00:30:15.543Z,0.00
2018-05-23T00:31:15.554Z,0.00
2018-05-23T00:32:15.544Z,0.00
2018-05-23T00:33:15.539Z,0.00
2018-05-23T00:34:15.539Z,0.00
2018-05-23T00:35:15.542Z,0.00
2018-05-23T00:36:15.542Z,0.00
2018-05-23T00:37:15.540Z,0.00
2018-05-23T00:38:15.539Z,0.00
2018-05-23T00:39:15.535Z,0.00
2018-05-23T00:40:15.532Z,0.00
2018-05-23T00:41:15.531Z,0.00
2018-05-23T00:42:15.530Z,0.00
2018-05-23T00:43:15.533Z,0.00
2018-05-23T00:44:15.532Z,0.00
2018-05-23T00:45:15.532Z,0.00
2018-05-23T00:46:15.533Z,0.00
2018-05-23T00:47:15.524Z,0.00
2018-05-23T00:48:15.524Z,0.00
2018-05-23T00:49:15.535Z,0.00
2018-05-23T00:50:15.595Z,0.00
2018-05-23T00:51:15.520Z,0.00
2018-05-23T00:52:15.519Z,0.00
2018-05-23T00:53:15.518Z,0.00
2018-05-23T00:54:15.518Z,0.00
2018-05-23T00:55:15.520Z,0.00
2018-05-23T00:56:15.519Z,0.00
2018-05-23T00:57:15.519Z,0.00
2018-05-23T00:58:15.520Z,0.00
2018-05-23T00:59:15.512Z,0.00
2018-05-23T01:00:15.512Z,0.00
2018-05-23T01:01:15.509Z,0.00
2018-05-23T01:02:15.509Z,0.00
2018-05-23T01:03:15.511Z,0.00
2018-05-23T01:04:15.510Z,0.00
2018-05-23T01:05:15.507Z,0.00
2018-05-23T01:06:15.504Z,0.00
2018-05-23T01:07:15.506Z,0.00
2018-05-23T01:08:15.505Z,0.00
2018-05-23T01:09:15.506Z,0.00
2018-05-23T01:10:15.505Z,0.00
2018-05-23T01:11:15.498Z,0.00
2018-05-23T01:12:15.497Z,0.00
2018-05-23T01:13:15.498Z,0.00
2018-05-23T01:14:15.495Z,0.00
2018-05-23T01:15:15.498Z,0.00
2018-05-23T01:16:15.496Z,0.00
2018-05-23T01:17:15.495Z,0.00
2018-05-23T01:18:15.494Z,0.00
2018-05-23T01:19:15.487Z,0.00
2018-05-23T01:20:15.487Z,0.00
2018-05-23T01:21:15.490Z,0.00
2018-05-23T01:22:15.493Z,0.00
2018-05-23T01:23:15.483Z,0.00
2018-05-23T01:24:15.482Z,0.00
2018-05-23T01:25:15.481Z,0.00
2018-05-23T01:26:15.479Z,0.00
2018-05-23T01:27:15.483Z,0.00
2018-05-23T01:28:15.482Z,0.00
2018-05-23T01:29:15.481Z,0.00
2018-05-23T01:30:15.480Z,0.00
2018-05-23T01:31:15.473Z,0.00
2018-05-23T01:32:15.471Z,0.00
2018-05-23T01:33:15.471Z,0.00
2018-05-23T01:34:15.469Z,0.00
2018-05-23T01:35:15.472Z,0.00
2018-05-23T01:36:15.471Z,0.00
2018-05-23T01:37:15.466Z,0.00
2018-05-23T01:38:15.464Z,0.00
2018-05-23T01:39:15.466Z,0.00
2018-05-23T01:40:15.465Z,0.00
2018-05-23T01:41:15.465Z,0.00
2018-05-23T01:42:15.464Z,0.00
2018-05-23T01:43:15.456Z,0.00
2018-05-23T01:44:15.457Z,0.00
2018-05-23T01:45:15.458Z,0.00
2018-05-23T01:46:15.453Z,0.00
2018-05-23T01:47:15.456Z,0.00
2018-05-23T01:48:15.454Z,0.00
2018-05-23T01:49:15.453Z,0.00
2018-05-23T01:50:15.455Z,0.00
2018-05-23T01:51:15.446Z,0.00
2018-05-23T01:52:15.447Z,0.00
2018-05-23T01:53:15.447Z,0.00
2018-05-23T01:54:15.447Z,0.00
2018-05-23T01:55:15.440Z,0.00
2018-05-23T01:56:15.438Z,0.00
2018-05-23T01:57:15.441Z,0.00
2018-05-23T01:58:15.435Z,0.00
2018-05-23T01:59:15.437Z,0.00
2018-05-23T02:00:15.443Z,0.00
2018-05-23T02:01:15.431Z,0.00
2018-05-23T02:02:15.432Z,0.00
2018-05-23T02:03:15.431Z,0.00
2018-05-23T02:04:15.434Z,0.00
2018-05-23T02:05:15.429Z,0.00
2018-05-23T02:06:15.427Z,0.00
2018-05-23T02:07:15.421Z,0.00
2018-05-23T02:08:15.420Z,0.00
2018-05-23T02:09:15.422Z,0.00
2018-05-23T02:10:15.421Z,0.00
2018-05-23T02:11:15.416Z,0.00
2018-05-23T02:12:15.413Z,0.00
2018-05-23T02:13:15.412Z,0.00
2018-05-23T02:14:15.410Z,0.00
2018-05-23T02:15:15.414Z,0.00
2018-05-23T02:16:15.412Z,0.00
2018-05-23T02:17:15.410Z,0.00
2018-05-23T02:18:15.409Z,0.00
2018-05-23T02:19:15.405Z,0.00
2018-05-23T02:20:15.401Z,0.00
2018-05-23T02:21:15.399Z,0.00
2018-05-23T02:22:15.397Z,0.00
2018-05-23T02:23:15.399Z,0.00
2018-05-23T02:24:15.402Z,0.00
2018-05-23T02:25:15.392Z,0.00
2018-05-23T02:26:15.391Z,0.00
2018-05-23T02:27:15.394Z,0.00
2018-05-23T02:28:15.394Z,0.00
2018-05-23T02:29:15.391Z,0.00
2018-05-23T02:30:15.390Z,0.00
2018-05-23T02:31:15.382Z,0.00
2018-05-23T02:32:15.381Z,0.00
2018-05-23T02:33:15.379Z,0.00
2018-05-23T02:34:15.379Z,0.00
2018-05-23T02:35:15.380Z,0.00
2018-05-23T02:36:15.380Z,0.00
2018-05-23T02:37:15.378Z,0.00
2018-05-23T02:38:15.376Z,0.00
2018-05-23T02:39:15.375Z,0.00
2018-05-23T02:40:15.369Z,0.00
2018-05-23T02:41:15.370Z,0.00
2018-05-23T02:42:15.369Z,0.00
2018-05-23T02:43:15.361Z,0.00
2018-05-23T02:44:15.361Z,0.00
2018-05-23T02:45:15.361Z,0.00
2018-05-23T02:46:15.359Z,0.00
2018-05-23T02:47:15.473Z,0.00
2018-05-23T02:48:15.360Z,0.00
2018-05-23T02:49:15.359Z,0.00
2018-05-23T02:50:15.357Z,0.00
2018-05-23T02:51:15.360Z,0.00
2018-05-23T02:52:15.348Z,0.00
2018-05-23T02:53:15.347Z,0.00
2018-05-23T02:54:15.345Z,0.00
2018-05-23T02:55:15.347Z,0.00
2018-05-23T02:56:15.347Z,0.00
2018-05-23T02:57:15.341Z,0.00
2018-05-23T02:58:15.339Z,0.00
2018-05-23T02:59:15.344Z,0.00
2018-05-23T03:00:15.341Z,0.00
2018-05-23T03:01:15.339Z,4.00
2018-05-23T03:02:15.338Z,4.00
2018-05-23T03:03:15.330Z,4.00
2018-05-23T03:04:15.331Z,0.00
2018-05-23T03:05:15.333Z,4.00
2018-05-23T03:06:15.325Z,4.00
2018-05-23T03:07:15.328Z,4.00
2018-05-23T03:08:15.327Z,4.00
2018-05-23T03:09:15.326Z,4.00
2018-05-23T03:10:15.330Z,8.00
2018-05-23T03:11:15.319Z,8.00
2018-05-23T03:12:15.315Z,8.00
2018-05-23T03:13:15.318Z,12.00
2018-05-23T03:14:15.317Z,12.00
2018-05-23T03:15:15.312Z,12.00
2018-05-23T03:16:15.310Z,16.00
2018-05-23T03:17:15.307Z,16.00
2018-05-23T03:18:15.305Z,20.00
2018-05-23T03:19:15.307Z,24.00
2018-05-23T03:20:15.310Z,24.00
2018-05-23T03:21:15.304Z,28.00
2018-05-23T03:22:15.305Z,28.00
2018-05-23T03:23:15.297Z,36.00
2018-05-23T03:24:15.296Z,36.00
2018-05-23T03:25:15.294Z,44.00
2018-05-23T03:26:15.295Z,48.00
2018-05-23T03:27:15.295Z,52.00
2018-05-23T03:28:15.296Z,56.00
2018-05-23T03:29:15.288Z,64.00
2018-05-23T03:30:15.287Z,68.00
2018-05-23T03:31:15.290Z,72.00
2018-05-23T03:32:15.287Z,80.00
2018-05-23T03:33:15.285Z,84.00
2018-05-23T03:34:15.284Z,88.00
2018-05-23T03:35:15.281Z,92.00
2018-05-23T03:36:15.276Z,100.00
2018-05-23T03:37:15.274Z,108.00
2018-05-23T03:38:15.272Z,112.00
2018-05-23T03:39:15.274Z,116.00
2018-05-23T03:40:15.273Z,124.00
2018-05-23T03:41:15.272Z,128.00
2018-05-23T03:42:15.272Z,132.00
2018-05-23T03:43:15.266Z,132.00
2018-05-23T03:44:15.262Z,132.00
2018-05-23T03:45:15.269Z,136.00
2018-05-23T03:46:15.265Z,132.00
2018-05-23T03:47:15.257Z,136.00
2018-05-23T03:48:15.257Z,132.00
2018-05-23T03:49:15.254Z,140.00
2018-05-23T03:50:15.253Z,140.00
2018-05-23T03:51:15.254Z,148.00
2018-05-23T03:52:15.257Z,160.00
2018-05-23T03:53:15.252Z,172.00
2018-05-23T03:54:15.250Z,184.00
2018-05-23T03:55:15.281Z,196.00
2018-05-23T03:56:15.243Z,208.00
2018-05-23T03:57:15.240Z,216.00
2018-05-23T03:58:15.239Z,232.00
2018-05-23T03:59:15.242Z,240.00
2018-05-23T04:00:15.239Z,252.00
2018-05-23T04:01:15.241Z,260.00
2018-05-23T04:02:15.236Z,272.00
2018-05-23T04:03:15.235Z,284.00
2018-05-23T04:04:15.233Z,296.00
2018-05-23T04:05:15.231Z,320.00
2018-05-23T04:06:15.229Z,344.00
2018-05-23T04:07:15.221Z,376.00
2018-05-23T04:08:15.221Z,408.00
2018-05-23T04:09:15.219Z,436.00
2018-05-23T04:10:15.218Z,464.00
2018-05-23T04:11:15.220Z,492.00
2018-05-23T04:12:15.219Z,516.00
2018-05-23T04:13:15.218Z,540.00
2018-05-23T04:14:15.215Z,556.00
2018-05-23T04:15:15.208Z,576.00
2018-05-23T04:16:15.207Z,596.00
2018-05-23T04:17:15.211Z,612.00
2018-05-23T04:18:15.218Z,628.00
2018-05-23T04:19:15.202Z,644.00
2018-05-23T04:20:15.201Z,656.00
2018-05-23T04:21:15.201Z,676.00
2018-05-23T04:22:15.198Z,688.00
2018-05-23T04:23:15.204Z,708.00
2018-05-23T04:24:15.200Z,728.00
2018-05-23T04:25:15.198Z,748.00
2018-05-23T04:26:15.197Z,764.00
2018-05-23T04:27:15.189Z,784.00
2018-05-23T04:28:15.189Z,800.00
2018-05-23T04:29:15.187Z,808.00
2018-05-23T04:30:15.186Z,816.00
2018-05-23T04:31:15.188Z,816.00
2018-05-23T04:32:15.187Z,820.00
2018-05-23T04:33:15.182Z,832.00
2018-05-23T04:34:15.180Z,844.00
2018-05-23T04:35:15.182Z,860.00
2018-05-23T04:36:15.180Z,876.00
2018-05-23T04:37:15.181Z,892.00
2018-05-23T04:38:15.179Z,904.00
2018-05-23T04:39:15.242Z,920.00
2018-05-23T04:40:15.172Z,936.00
2018-05-23T04:41:15.171Z,944.00
2018-05-23T04:42:15.169Z,952.00
2018-05-23T04:43:15.172Z,956.00
2018-05-23T04:44:15.170Z,956.00
2018-05-23T04:45:15.168Z,960.00
2018-05-23T04:46:15.168Z,960.00
2018-05-23T04:47:15.161Z,964.00
2018-05-23T04:48:15.160Z,956.00
2018-05-23T04:49:15.166Z,948.00
2018-05-23T04:50:15.162Z,940.00
2018-05-23T04:51:15.156Z,924.00
2018-05-23T04:52:15.154Z,912.00
2018-05-23T04:53:15.154Z,904.00
2018-05-23T04:54:15.156Z,900.00
2018-05-23T04:55:15.155Z,904.00
2018-05-23T04:56:15.155Z,908.00
2018-05-23T04:57:15.154Z,916.00
2018-05-23T04:58:15.153Z,924.00
2018-05-23T04:59:15.146Z,928.00
2018-05-23T05:00:15.149Z,916.00
2018-05-23T05:01:15.143Z,904.00
2018-05-23T05:02:15.143Z,884.00
2018-05-23T05:03:15.145Z,856.00
2018-05-23T05:04:15.144Z,828.00
2018-05-23T05:05:15.139Z,800.00
2018-05-23T05:06:15.138Z,780.00
2018-05-23T05:07:15.144Z,772.00
2018-05-23T05:08:15.139Z,772.00
2018-05-23T05:09:15.138Z,764.00
2018-05-23T05:10:15.138Z,764.00
2018-05-23T05:11:15.131Z,768.00
2018-05-23T05:12:15.131Z,792.00
2018-05-23T05:13:15.129Z,816.00
2018-05-23T05:14:15.129Z,856.00
2018-05-23T05:15:15.130Z,908.00
2018-05-23T05:16:15.130Z,960.00
2018-05-23T05:17:15.131Z,1024.00
2018-05-23T05:18:15.128Z,1080.00
2018-05-23T05:19:15.122Z,1144.00
2018-05-23T05:20:15.121Z,1200.00
2018-05-23T05:21:15.126Z,1252.00
2018-05-23T05:22:15.124Z,1300.00
2018-05-23T05:23:15.117Z,1340.00
2018-05-23T05:24:15.117Z,1384.00
2018-05-23T05:25:15.116Z,1424.00
2018-05-23T05:26:15.113Z,1460.00
2018-05-23T05:27:15.117Z,1496.00
2018-05-23T05:28:15.116Z,1524.00
2018-05-23T05:29:15.115Z,1544.00
2018-05-23T05:30:15.117Z,1548.00
2018-05-23T05:31:15.111Z,1540.00
2018-05-23T05:32:15.106Z,1520.00
2018-05-23T05:33:15.106Z,1524.00
2018-05-23T05:34:15.109Z,1532.00
2018-05-23T05:35:15.108Z,1548.00
2018-05-23T05:36:15.110Z,1560.00
2018-05-23T05:37:15.102Z,1568.00
2018-05-23T05:38:15.103Z,1576.00
2018-05-23T05:39:15.105Z,1580.00
2018-05-23T05:40:15.104Z,1580.00
2018-05-23T05:41:15.102Z,1576.00
2018-05-23T05:42:15.101Z,1584.00
2018-05-23T05:43:15.095Z,1600.00
2018-05-23T05:44:15.095Z,1620.00
2018-05-23T05:45:15.094Z,1624.00
2018-05-23T05:46:15.093Z,1624.00
2018-05-23T05:47:15.096Z,1624.00
2018-05-23T05:48:15.095Z,1640.00
2018-05-23T05:49:15.096Z,1660.00
2018-05-23T05:50:15.097Z,1684.00
2018-05-23T05:51:15.088Z,1712.00
2018-05-23T05:52:15.088Z,1740.00
2018-05-23T05:53:15.093Z,1784.00
2018-05-23T05:54:15.091Z,1828.00
2018-05-23T05:55:15.085Z,1876.00
2018-05-23T05:56:15.083Z,1924.00
2018-05-23T05:57:15.082Z,1976.00
2018-05-23T05:58:15.083Z,2060.00
2018-05-23T05:59:15.085Z,2148.00
2018-05-23T06:00:15.088Z,2248.00
2018-05-23T06:01:15.084Z,2344.00
2018-05-23T06:02:15.083Z,2424.00
2018-05-23T06:03:15.077Z,2496.00
2018-05-23T06:04:15.077Z,2540.00
2018-05-23T06:05:15.077Z,2560.00
2018-05-23T06:06:15.076Z,2564.00
2018-05-23T06:07:15.079Z,2604.00
2018-05-23T06:08:15.080Z,2640.00
2018-05-23T06:09:15.074Z,2668.00
2018-05-23T06:10:15.073Z,2664.00
2018-05-23T06:11:15.078Z,2664.00
2018-05-23T06:12:15.077Z,2696.00
2018-05-23T06:13:15.075Z,2756.00
2018-05-23T06:14:15.075Z,2808.00
2018-05-23T06:15:15.070Z,2844.00
2018-05-23T06:16:15.068Z,2900.00
2018-05-23T06:17:15.075Z,2956.00
2018-05-23T06:18:15.068Z,3036.00
2018-05-23T06:19:15.071Z,3140.00
2018-05-23T06:20:15.071Z,3288.00
2018-05-23T06:21:15.072Z,3484.00
2018-05-23T06:22:15.160Z,3680.00
2018-05-23T06:23:15.065Z,3864.00
2018-05-23T06:24:15.066Z,4036.00
2018-05-23T06:25:15.069Z,4204.00
2018-05-23T06:26:15.070Z,4372.00
2018-05-23T06:27:15.068Z,4544.00
2018-05-23T06:28:15.063Z,4632.00
2018-05-23T06:29:15.063Z,4628.00
2018-05-23T06:30:15.074Z,4716.00
2018-05-23T06:31:15.066Z,4864.00
2018-05-23T06:32:15.066Z,4980.00
2018-05-23T06:33:15.066Z,4984.00
2018-05-23T06:34:15.065Z,4972.00
2018-05-23T06:35:15.062Z,4856.00
2018-05-23T06:36:15.062Z,4912.00
2018-05-23T06:37:15.061Z,4936.00
2018-05-23T06:38:15.062Z,4856.00
2018-05-23T06:39:15.065Z,4792.00
2018-05-23T06:40:15.065Z,4640.00
2018-05-23T06:41:15.060Z,4408.00
2018-05-23T06:42:15.063Z,4052.00
2018-05-23T06:43:15.065Z,3916.00
2018-05-23T06:44:15.065Z,4004.00
2018-05-23T06:45:15.064Z,4108.00
2018-05-23T06:46:15.064Z,4096.00
2018-05-23T06:47:15.059Z,4008.00
2018-05-23T06:48:15.060Z,3928.00
2018-05-23T06:49:15.061Z,3920.00
2018-05-23T06:50:15.059Z,4056.00
2018-05-23T06:51:15.064Z,4172.00
2018-05-23T06:52:15.064Z,4224.00
2018-05-23T06:53:15.144Z,4208.00
2018-05-23T06:54:15.066Z,4308.00
2018-05-23T06:55:15.060Z,4440.00
2018-05-23T06:56:15.061Z,4580.00
2018-05-23T06:57:15.067Z,4732.00
2018-05-23T06:58:15.067Z,4908.00
2018-05-23T06:59:15.060Z,5108.00
2018-05-23T07:00:15.066Z,5308.00
2018-05-23T07:01:15.062Z,5580.00
2018-05-23T07:02:15.061Z,6004.00
2018-05-23T07:03:15.068Z,6392.00
2018-05-23T07:04:15.065Z,6704.00
2018-05-23T07:05:15.069Z,7064.00
2018-05-23T07:06:15.067Z,7408.00
2018-05-23T07:07:15.064Z,7676.00
2018-05-23T07:08:15.063Z,8080.00
2018-05-23T07:09:15.063Z,8308.00
2018-05-23T07:10:15.063Z,8736.00
2018-05-23T07:11:15.171Z,8992.00
2018-05-23T07:12:15.069Z,9392.00
2018-05-23T07:13:15.065Z,9672.00
2018-05-23T07:14:15.066Z,9984.00
2018-05-23T07:15:15.071Z,10488.00
2018-05-23T07:16:15.072Z,10852.00
2018-05-23T07:17:15.075Z,11164.00
2018-05-23T07:18:15.073Z,11432.00
2018-05-23T07:19:15.069Z,11668.00
2018-05-23T07:20:15.073Z,12028.00
2018-05-23T07:21:15.072Z,12344.00
2018-05-23T07:22:15.073Z,12688.00
2018-05-23T07:23:15.079Z,12908.00
2018-05-23T07:24:15.081Z,13200.00
2018-05-23T07:25:15.087Z,13600.00
2018-05-23T07:26:15.087Z,12492.00
2018-05-23T07:27:15.080Z,12772.00
2018-05-23T07:28:15.081Z,13008.00
2018-05-23T07:29:15.089Z,13144.00
2018-05-23T07:30:15.091Z,13016.00
2018-05-23T07:31:15.087Z,13424.00
2018-05-23T07:32:15.090Z,11852.00
2018-05-23T07:33:15.092Z,12136.00
2018-05-23T07:34:15.095Z,13224.00
2018-05-23T07:35:15.102Z,13320.00
2018-05-23T07:36:15.103Z,12924.00
2018-05-23T07:37:15.107Z,12236.00
2018-05-23T07:38:15.129Z,12344.00
2018-05-23T07:39:15.108Z,11300.00
2018-05-23T07:40:15.109Z,10928.00
2018-05-23T07:41:15.111Z,10768.00
2018-05-23T07:42:15.118Z,11000.00
2018-05-23T07:43:15.121Z,11452.00
2018-05-23T07:44:15.125Z,11496.00
2018-05-23T07:45:15.123Z,11264.00
2018-05-23T07:46:15.127Z,11516.00
2018-05-23T07:47:15.134Z,14928.00
2018-05-23T07:48:15.138Z,11216.00
2018-05-23T07:49:15.140Z,12160.00
2018-05-23T07:50:15.148Z,10768.00
2018-05-23T07:51:15.143Z,10544.00
2018-05-23T07:52:15.145Z,10368.00
2018-05-23T07:53:15.149Z,10444.00
2018-05-23T07:54:15.150Z,10680.00
2018-05-23T07:55:15.159Z,11212.00
2018-05-23T07:56:15.161Z,12968.00
2018-05-23T07:57:15.164Z,17344.00
2018-05-23T07:58:15.168Z,19584.00
2018-05-23T07:59:15.166Z,20480.00
2018-05-23T08:00:15.170Z,21056.00
2018-05-23T08:01:15.183Z,22176.00
2018-05-23T08:02:15.185Z,22240.00
2018-05-23T08:03:15.180Z,21248.00
2018-05-23T08:04:15.186Z,19872.00
2018-05-23T08:05:15.188Z,18656.00
2018-05-23T08:06:15.193Z,17824.00
2018-05-23T08:07:15.205Z,17088.00
2018-05-23T08:08:15.205Z,16864.00
2018-05-23T08:09:15.260Z,16576.00
2018-05-23T08:10:15.216Z,16000.00
2018-05-23T08:11:15.214Z,15872.00
2018-05-23T08:12:15.222Z,16928.00
2018-05-23T08:13:15.224Z,16416.00
2018-05-23T08:14:15.231Z,17376.00
2018-05-23T08:15:15.238Z,17792.00
2018-05-23T08:16:15.244Z,18944.00
2018-05-23T08:17:15.245Z,19264.00
2018-05-23T08:18:15.251Z,19264.00
2018-05-23T08:19:15.260Z,18400.00
2018-05-23T08:20:15.265Z,18560.00
2018-05-23T08:21:15.273Z,19456.00
2018-05-23T08:22:15.278Z,21600.00
2018-05-23T08:23:15.277Z,21888.00
2018-05-23T08:24:15.371Z,22304.00
2018-05-23T08:25:15.289Z,22144.00
2018-05-23T08:26:15.296Z,23104.00
2018-05-23T08:27:15.305Z,22432.00
2018-05-23T08:28:15.310Z,22752.00
2018-05-23T08:29:15.321Z,23936.00
2018-05-23T08:30:15.324Z,26176.00
2018-05-23T08:31:15.324Z,27264.00
2018-05-23T08:32:15.331Z,28864.00
2018-05-23T08:33:15.343Z,28672.00
2018-05-23T08:34:15.348Z,24608.00
2018-05-23T08:35:15.350Z,25344.00
2018-05-23T08:36:15.356Z,23360.00
2018-05-23T08:37:15.362Z,30272.00
2018-05-23T08:38:15.370Z,28192.00
2018-05-23T08:39:15.380Z,37056.00
2018-05-23T08:40:15.386Z,44064.00
2018-05-23T08:41:15.394Z,45856.00
2018-05-23T08:42:15.404Z,42912.00
2018-05-23T08:43:15.409Z,46368.00
2018-05-23T08:44:15.412Z,42432.00
2018-05-23T08:45:15.421Z,33376.00
2018-05-23T08:46:15.436Z,35712.00
2018-05-23T08:47:15.442Z,40832.00
2018-05-23T08:48:15.453Z,44064.00
2018-05-23T08:49:15.455Z,34336.00
2018-05-23T08:50:15.464Z,37856.00
2018-05-23T08:51:15.479Z,34592.00
2018-05-23T08:52:15.487Z,41888.00
2018-05-23T08:53:15.497Z,27040.00
2018-05-23T08:54:15.506Z,23936.00
2018-05-23T08:55:15.511Z,29376.00
2018-05-23T08:56:15.521Z,26304.00
2018-05-23T08:57:15.532Z,53536.00
2018-05-23T08:58:15.542Z,48960.00
2018-05-23T08:59:15.555Z,52448.00
2018-05-23T09:00:15.565Z,49472.00
2018-05-23T09:01:15.577Z,53312.00
2018-05-23T09:02:15.590Z,53120.00
2018-05-23T09:03:15.593Z,52480.00
2018-05-23T09:04:15.604Z,47968.00
2018-05-23T09:05:15.620Z,47552.00
2018-05-23T09:06:15.632Z,34912.00
2018-05-23T09:07:15.639Z,48128.00
2018-05-23T09:08:15.652Z,48736.00
2018-05-23T09:09:15.664Z,51776.00
2018-05-23T09:10:15.676Z,41152.00
2018-05-23T09:11:15.697Z,38048.00
2018-05-23T09:12:15.768Z,40064.00
2018-05-23T09:13:15.719Z,52992.00
2018-05-23T09:14:15.733Z,51392.00
2018-05-23T09:15:15.743Z,50048.00
2018-05-23T09:16:15.757Z,49984.00
2018-05-23T09:17:15.858Z,48480.00
2018-05-23T09:18:15.784Z,47744.00
2018-05-23T09:19:15.803Z,47968.00
2018-05-23T09:20:15.816Z,48416.00
2018-05-23T09:21:15.826Z,48544.00
2018-05-23T09:22:15.842Z,47904.00
2018-05-23T09:23:15.858Z,46752.00
2018-05-23T09:24:15.874Z,42016.00
2018-05-23T09:25:15.888Z,44192.00
2018-05-23T09:26:15.903Z,47712.00
2018-05-23T09:27:15.912Z,48480.00
2018-05-23T09:28:15.927Z,36640.00
2018-05-23T09:29:15.943Z,34144.00
2018-05-23T09:30:15.957Z,28160.00
2018-05-23T09:31:15.976Z,41760.00
2018-05-23T09:32:16.005Z,29952.00
2018-05-23T09:33:16.006Z,33920.00
2018-05-23T09:34:16.021Z,31104.00
2018-05-23T09:35:16.033Z,32192.00
2018-05-23T09:36:16.046Z,29952.00
2018-05-23T09:37:16.063Z,42016.00
2018-05-23T09:38:16.078Z,52928.00
2018-05-23T09:39:16.128Z,73344.00
2018-05-23T09:40:16.160Z,93504.00
2018-05-23T09:41:16.115Z,75744.00
2018-05-23T09:42:16.131Z,81152.00
2018-05-23T09:43:16.149Z,78048.00
2018-05-23T09:44:16.167Z,71808.00
2018-05-23T09:45:16.243Z,65856.00
2018-05-23T09:46:16.194Z,70848.00
2018-05-23T09:47:16.202Z,68576.00
2018-05-23T09:48:16.216Z,65184.00
2018-05-23T09:49:16.232Z,58176.00
2018-05-23T09:50:16.248Z,71936.00
2018-05-23T09:51:16.266Z,51232.00
2018-05-23T09:52:16.283Z,21248.00
2018-05-23T09:53:16.294Z,18560.00
2018-05-23T09:54:16.309Z,17920.00
2018-05-23T09:55:16.326Z,17856.00
2018-05-23T09:56:16.341Z,19392.00
2018-05-23T09:57:16.357Z,21888.00
2018-05-23T09:58:16.371Z,33568.00
2018-05-23T09:59:16.379Z,60192.00
2018-05-23T10:00:16.393Z,66080.00
2018-05-23T10:01:16.407Z,45216.00
2018-05-23T10:02:16.422Z,63200.00
2018-05-23T10:03:16.439Z,40480.00
2018-05-23T10:04:16.452Z,50368.00
2018-05-23T10:05:16.465Z,61120.00
2018-05-23T10:06:16.478Z,56576.00
2018-05-23T10:07:16.486Z,59552.00
2018-05-23T10:08:16.500Z,60480.00
2018-05-23T10:09:16.520Z,51264.00
2018-05-23T10:10:16.532Z,53248.00
2018-05-23T10:11:16.540Z,50752.00
2018-05-23T10:12:16.556Z,52064.00
2018-05-23T10:13:16.573Z,43680.00
2018-05-23T10:14:16.583Z,45824.00
2018-05-23T10:15:16.601Z,44992.00
2018-05-23T10:16:16.621Z,47552.00
2018-05-23T10:17:16.630Z,38336.00
2018-05-23T10:18:16.645Z,36000.00
2018-05-23T10:19:16.659Z,37248.00
2018-05-23T10:20:16.668Z,38144.00
2018-05-23T10:21:16.682Z,34912.00
2018-05-23T10:22:16.697Z,32704.00
2018-05-23T10:23:16.713Z,36672.00
2018-05-23T10:24:16.730Z,36544.00
2018-05-23T10:25:16.737Z,28480.00
2018-05-23T10:26:16.835Z,33888.00
2018-05-23T10:27:16.769Z,33504.00
2018-05-23T10:28:16.783Z,31712.00
2018-05-23T10:29:16.797Z,30080.00
2018-05-23T10:30:16.811Z,24800.00
2018-05-23T10:31:16.818Z,26336.00
2018-05-23T10:32:16.832Z,24064.00
2018-05-23T10:33:16.912Z,22176.00
2018-05-23T10:34:16.861Z,21408.00
2018-05-23T10:35:16.870Z,21984.00
2018-05-23T10:36:16.881Z,21312.00
2018-05-23T10:37:16.894Z,21632.00
2018-05-23T10:38:16.904Z,25760.00
2018-05-23T10:39:16.920Z,21952.00
2018-05-23T10:40:16.931Z,28512.00
2018-05-23T10:41:16.949Z,24352.00
2018-05-23T10:42:16.946Z,25120.00
2018-05-23T10:43:16.961Z,23424.00
2018-05-23T10:44:16.972Z,18336.00
2018-05-23T10:45:16.980Z,16512.00
2018-05-23T10:46:16.993Z,16000.00
2018-05-23T10:47:16.993Z,16256.00
2018-05-23T10:48:17.005Z,15348.00
2018-05-23T10:49:17.012Z,14116.00
2018-05-23T10:50:17.023Z,13756.00
2018-05-23T10:51:17.034Z,12596.00
2018-05-23T10:52:17.041Z,12176.00
2018-05-23T10:53:17.050Z,12524.00
2018-05-23T10:54:17.058Z,13172.00
2018-05-23T10:55:17.096Z,13268.00
2018-05-23T10:56:17.079Z,12588.00
2018-05-23T10:57:17.150Z,12024.00
2018-05-23T10:58:17.089Z,11568.00
2018-05-23T10:59:17.089Z,11200.00
2018-05-23T11:00:17.095Z,10968.00
2018-05-23T11:01:17.104Z,10404.00
2018-05-23T11:02:17.111Z,9344.00
2018-05-23T11:03:17.120Z,8372.00
2018-05-23T11:04:17.126Z,7516.00
2018-05-23T11:05:17.133Z,6884.00
2018-05-23T11:06:17.139Z,6524.00
2018-05-23T11:07:17.140Z,6304.00
2018-05-23T11:08:17.146Z,6136.00
2018-05-23T11:09:17.154Z,6076.00
2018-05-23T11:10:17.156Z,6068.00
2018-05-23T11:11:17.168Z,6144.00
2018-05-23T11:12:17.173Z,6252.00
2018-05-23T11:13:17.174Z,6456.00
2018-05-23T11:14:17.178Z,6644.00
2018-05-23T11:15:17.213Z,6788.00
2018-05-23T11:16:17.192Z,6916.00
2018-05-23T11:17:17.197Z,6984.00
2018-05-23T11:18:17.202Z,7096.00
2018-05-23T11:19:17.201Z,7236.00
2018-05-23T11:20:17.206Z,7340.00
2018-05-23T11:21:17.217Z,7440.00
2018-05-23T11:22:17.215Z,7576.00
2018-05-23T11:23:17.223Z,7864.00
2018-05-23T11:24:17.228Z,8272.00
2018-05-23T11:25:17.233Z,8760.00
2018-05-23T11:26:17.238Z,9288.00
2018-05-23T11:27:17.235Z,9640.00
2018-05-23T11:28:17.241Z,9908.00
2018-05-23T11:29:17.249Z,9940.00
2018-05-23T11:30:17.255Z,9904.00
2018-05-23T11:31:17.251Z,9852.00
2018-05-23T11:32:17.255Z,9776.00
2018-05-23T11:33:17.259Z,9684.00
2018-05-23T11:34:17.263Z,9608.00
2018-05-23T11:35:17.270Z,9184.00
2018-05-23T11:36:17.274Z,8600.00
2018-05-23T11:37:17.328Z,7980.00
2018-05-23T11:38:17.283Z,7248.00
2018-05-23T11:39:17.283Z,6428.00
2018-05-23T11:40:17.284Z,5620.00
2018-05-23T11:41:17.291Z,4968.00
2018-05-23T11:42:17.292Z,4504.00
2018-05-23T11:43:17.300Z,4200.00
2018-05-23T11:44:17.303Z,4032.00
2018-05-23T11:45:17.301Z,3924.00
2018-05-23T11:46:17.305Z,3880.00
2018-05-23T11:47:17.311Z,3940.00
2018-05-23T11:48:17.314Z,4064.00
2018-05-23T11:49:17.319Z,4252.00
2018-05-23T11:50:17.324Z,4436.00
2018-05-23T11:51:17.319Z,4604.00
2018-05-23T11:52:17.409Z,4704.00
2018-05-23T11:53:17.325Z,4764.00
2018-05-23T11:54:17.328Z,4824.00
2018-05-23T11:55:17.335Z,4868.00
2018-05-23T11:56:17.339Z,4876.00
2018-05-23T11:57:17.344Z,4900.00
2018-05-23T11:58:17.342Z,4928.00
2018-05-23T11:59:17.340Z,5016.00
2018-05-23T12:00:17.342Z,5060.00
2018-05-23T12:01:17.352Z,5168.00
2018-05-23T12:02:17.352Z,5252.00
2018-05-23T12:03:17.349Z,5340.00
2018-05-23T12:04:17.353Z,5376.00
2018-05-23T12:05:17.354Z,5448.00
2018-05-23T12:06:17.355Z,5480.00
2018-05-23T12:07:17.361Z,5516.00
2018-05-23T12:08:17.363Z,5596.00
2018-05-23T12:09:17.366Z,5756.00
2018-05-23T12:10:17.389Z,5948.00
2018-05-23T12:11:17.363Z,6152.00
2018-05-23T12:12:17.363Z,6356.00
2018-05-23T12:13:17.365Z,6532.00
2018-05-23T12:14:17.366Z,6700.00
2018-05-23T12:15:17.370Z,6872.00
2018-05-23T12:16:17.371Z,7076.00
2018-05-23T12:17:17.368Z,7308.00
2018-05-23T12:18:17.369Z,7548.00
2018-05-23T12:19:17.373Z,7804.00
2018-05-23T12:20:17.375Z,8056.00